Terminal Aerodrome Forecast
Issued by NWS

Current Version | Previous Version | Graphics & Text | Print | Product List | Glossary On
Versions: 1 2 3 4 5 6 7 8 9 10 11 12 13 14 15 16 17 18 19 20 21 22 23 24 25
387
FTUS41 KPBZ 191502 AAA
TAFMGW
TAF AMD
KMGW 191502Z 1915/2012 16009KT P6SM -RA OVC025 WS020/21045KT
     FM192000 18012KT P6SM BKN050 WS020/21045KT
     FM192300 20009KT P6SM BKN100=

USA.gov is the U.S. government's official web portal to all federal, state and local government web resources and services.